TimeCST,TemperatureF,Dew PointF,Humidity,Sea Level PressureIn,VisibilityMPH,Wind Direction,Wind SpeedMPH,Gust SpeedMPH,PrecipitationIn,Events,Conditions,WindDirDegrees,DateUTC
12:00 AM,71,68,87,30.03,12,Calm,Calm,,,,Mostly Cloudy,,2012-11-10 06:00:00
3:00 AM,71,69,90,30.00,12,North,9.2,,,,Mostly Cloudy,0,2012-11-10 09:00:00
5:00 AM,71.6,68.0,88,30.01,6.2,NNW,4.6,-,N/A,Rain,Light Rain Showers,340,2012-11-10 11:00:00
6:00 AM,71.6,69.8,94,30.01,6.2,NNW,4.6,-,N/A,,Mostly Cloudy,340,2012-11-10 12:00:00
7:00 AM,73.4,68.0,83,30.04,6.2,NNW,5.8,-,N/A,,Mostly Cloudy,340,2012-11-10 13:00:00
8:00 AM,73.4,68.0,83,30.06,6.2,North,6.9,-,N/A,,Mostly Cloudy,350,2012-11-10 14:00:00
9:00 AM,75,70,79,30.08,12,NNW,8.1,,,,Mostly Cloudy,340,2012-11-10 15:00:00
9:00 AM,75.2,69.8,83,30.07,6.2,NNW,8.1,-,N/A,,Mostly Cloudy,340,2012-11-10 15:00:00
10:00 AM,78.8,68.0,69,30.07,6.2,NNE,9.2,-,N/A,,Mostly Cloudy,20,2012-11-10 16:00:00
11:00 AM,82.4,66.2,58,30.05,6.2,NNE,10.4,-,N/A,,Mostly Cloudy,30,2012-11-10 17:00:00
12:00 PM,82,68,55,30.03,12,NNE,10.4,,,,Mostly Cloudy,30,2012-11-10 18:00:00
12:00 PM,82.4,68.0,62,30.02,6.2,NNE,10.4,-,N/A,,Mostly Cloudy,30,2012-11-10 18:00:00
1:00 PM,82.4,68.0,62,29.99,6.2,NNE,10.4,-,N/A,,Mostly Cloudy,20,2012-11-10 19:00:00
2:00 PM,82.4,68.0,62,29.97,6.2,ENE,8.1,-,N/A,,Mostly Cloudy,60,2012-11-10 20:00:00
3:00 PM,82,67,52,29.97,12,ENE,9.2,,,,Mostly Cloudy,60,2012-11-10 21:00:00
3:00 PM,82.4,68.0,62,29.96,6.2,ENE,9.2,-,N/A,,Mostly Cloudy,60,2012-11-10 21:00:00
4:00 PM,82.4,69.8,66,29.96,6.2,ENE,8.1,-,N/A,,Mostly Cloudy,60,2012-11-10 22:00:00
5:00 PM,80.6,69.8,70,29.97,6.2,NE,4.6,-,N/A,,Mostly Cloudy,50,2012-11-10 23:00:00
6:00 PM,80,69,63,29.98,12,NE,3.5,,,,Mostly Cloudy,50,2012-11-11 00:00:00
6:00 PM,80.6,69.8,70,29.98,6.2,NE,3.5,-,N/A,,Mostly Cloudy,50,2012-11-11 00:00:00
9:00 PM,77,72,81,30.03,12,Calm,Calm,,,,Mostly Cloudy,,2012-11-11 03:00:00